sensor_id;sensor_type;location;lat;lon;timestamp;temperature;humidity
35111;DHT22;21290;50.158;8.658;2023-03-31T00:01:50;10.90;99.90
35111;DHT22;21290;50.158;8.658;2023-03-31T00:04:18;10.90;99.90
35111;DHT22;21290;50.158;8.658;2023-03-31T00:06:49;10.90;99.90
35111;DHT22;21290;50.158;8.658;2023-03-31T00:09:20;10.80;99.90
35111;DHT22;21290;50.158;8.658;2023-03-31T00:11:48;10.80;99.90
35111;DHT22;21290;50.158;8.658;2023-03-31T00:14:17;10.80;99.90
35111;DHT22;21290;50.158;8.658;2023-03-31T00:16:44;10.80;99.90
35111;DHT22;21290;50.158;8.658;2023-03-31T00:19:12;10.70;99.90
35111;DHT22;21290;50.158;8.658;2023-03-31T00:21:47;10.70;99.90
35111;DHT22;21290;50.158;8.658;2023-03-31T00:24:15;10.70;99.90
35111;DHT22;21290;50.158;8.658;2023-03-31T00:26:42;10.60;99.90
35111;DHT22;21290;50.158;8.658;2023-03-31T00:29:11;10.60;99.90
35111;DHT22;21290;50.158;8.658;2023-03-31T00:31:38;10.60;99.90
35111;DHT22;21290;50.158;8.658;2023-03-31T00:34:05;10.60;99.90
35111;DHT22;21290;50.158;8.658;2023-03-31T00:36:32;10.60;99.90
35111;DHT22;21290;50.158;8.658;2023-03-31T00:39:04;10.50;99.90
35111;DHT22;21290;50.158;8.658;2023-03-31T00:41:35;10.50;99.90
35111;DHT22;21290;50.158;8.658;2023-03-31T00:44:09;10.50;99.90
35111;DHT22;21290;50.158;8.658;2023-03-31T00:46:42;10.40;99.90
35111;DHT22;21290;50.158;8.658;2023-03-31T00:49:17;10.40;99.90
35111;DHT22;21290;50.158;8.658;2023-03-31T00:51:47;10.40;99.90
35111;DHT22;21290;50.158;8.658;2023-03-31T00:54:14;10.30;99.90
35111;DHT22;21290;50.158;8.658;2023-03-31T00:56:44;10.30;99.90
35111;DHT22;21290;50.158;8.658;2023-03-31T00:59:14;10.30;99.90
35111;DHT22;21290;50.158;8.658;2023-03-31T01:01:43;10.30;99.90
35111;DHT22;21290;50.158;8.658;2023-03-31T01:04:12;10.20;99.90
35111;DHT22;21290;50.158;8.658;2023-03-31T01:06:50;10.20;99.90
35111;DHT22;21290;50.158;8.658;2023-03-31T01:09:23;10.20;99.90
35111;DHT22;21290;50.158;8.658;2023-03-31T01:11:50;10.20;99.90
35111;DHT22;21290;50.158;8.658;2023-03-31T01:14:17;10.20;99.90
35111;DHT22;21290;50.158;8.658;2023-03-31T01:16:43;10.10;99.90
35111;DHT22;21290;50.158;8.658;2023-03-31T01:19:21;10.10;99.90
35111;DHT22;21290;50.158;8.658;2023-03-31T01:27:53;10.10;99.90
35111;DHT22;21290;50.158;8.658;2023-03-31T01:33:56;10.10;99.90
35111;DHT22;21290;50.158;8.658;2023-03-31T01:36:43;10.00;99.90
35111;DHT22;21290;50.158;8.658;2023-03-31T01:44:56;9.90;99.90
35111;DHT22;21290;50.158;8.658;2023-03-31T01:47:54;9.90;99.90
35111;DHT22;21290;50.158;8.658;2023-03-31T01:50:21;9.90;99.90
35111;DHT22;21290;50.158;8.658;2023-03-31T01:53:20;9.90;99.90
35111;DHT22;21290;50.158;8.658;2023-03-31T01:55:59;9.90;99.90
35111;DHT22;21290;50.158;8.658;2023-03-31T01:58:45;9.90;99.90
35111;DHT22;21290;50.158;8.658;2023-03-31T02:01:18;9.90;99.90
35111;DHT22;21290;50.158;8.658;2023-03-31T02:03:52;9.90;99.90
35111;DHT22;21290;50.158;8.658;2023-03-31T02:06:24;9.90;99.90
35111;DHT22;21290;50.158;8.658;2023-03-31T02:09:01;9.80;99.90
35111;DHT22;21290;50.158;8.658;2023-03-31T02:11:31;9.80;99.90
35111;DHT22;21290;50.158;8.658;2023-03-31T02:13:59;9.90;99.90
35111;DHT22;21290;50.158;8.658;2023-03-31T02:16:29;9.80;99.90
35111;DHT22;21290;50.158;8.658;2023-03-31T02:19:00;9.80;99.90
35111;DHT22;21290;50.158;8.658;2023-03-31T02:21:31;9.80;99.90
35111;DHT22;21290;50.158;8.658;2023-03-31T02:24:01;9.80;99.90
35111;DHT22;21290;50.158;8.658;2023-03-31T02:26:35;9.80;99.90
35111;DHT22;21290;50.158;8.658;2023-03-31T02:29:02;9.80;99.90
35111;DHT22;21290;50.158;8.658;2023-03-31T02:31:44;9.70;99.90
35111;DHT22;21290;50.158;8.658;2023-03-31T02:34:12;9.70;99.90
35111;DHT22;21290;50.158;8.658;2023-03-31T02:36:40;9.80;99.90
35111;DHT22;21290;50.158;8.658;2023-03-31T02:39:14;9.70;99.90
35111;DHT22;21290;50.158;8.658;2023-03-31T02:41:43;9.70;99.90
35111;DHT22;21290;50.158;8.658;2023-03-31T02:44:10;9.80;99.90
35111;DHT22;21290;50.158;8.658;2023-03-31T02:46:37;9.80;99.90
35111;DHT22;21290;50.158;8.658;2023-03-31T02:49:06;9.80;99.90
35111;DHT22;21290;50.158;8.658;2023-03-31T02:51:59;9.80;99.90
35111;DHT22;21290;50.158;8.658;2023-03-31T03:03:33;9.80;99.90
35111;DHT22;21290;50.158;8.658;2023-03-31T03:11:43;9.90;99.90
35111;DHT22;21290;50.158;8.658;2023-03-31T03:14:16;9.90;99.90
35111;DHT22;21290;50.158;8.658;2023-03-31T03:16:47;9.90;99.90
35111;DHT22;21290;50.158;8.658;2023-03-31T03:19:20;9.80;99.90
35111;DHT22;21290;50.158;8.658;2023-03-31T03:21:47;9.80;99.90
35111;DHT22;21290;50.158;8.658;2023-03-31T03:24:17;9.80;99.90
35111;DHT22;21290;50.158;8.658;2023-03-31T03:26:44;9.80;99.90
35111;DHT22;21290;50.158;8.658;2023-03-31T03:29:11;9.80;99.90
35111;DHT22;21290;50.158;8.658;2023-03-31T03:31:41;9.70;99.90
35111;DHT22;21290;50.158;8.658;2023-03-31T03:34:08;9.70;99.90
35111;DHT22;21290;50.158;8.658;2023-03-31T03:36:36;9.70;99.90
35111;DHT22;21290;50.158;8.658;2023-03-31T03:39:04;9.70;99.90
35111;DHT22;21290;50.158;8.658;2023-03-31T03:41:32;9.70;99.90
35111;DHT22;21290;50.158;8.658;2023-03-31T03:43:59;9.70;99.90
35111;DHT22;21290;50.158;8.658;2023-03-31T03:46:26;9.70;99.90
35111;DHT22;21290;50.158;8.658;2023-03-31T03:48:53;9.70;99.90
35111;DHT22;21290;50.158;8.658;2023-03-31T03:51:20;9.70;99.90
35111;DHT22;21290;50.158;8.658;2023-03-31T03:53:46;9.70;99.90
35111;DHT22;21290;50.158;8.658;2023-03-31T03:56:13;9.70;99.90
35111;DHT22;21290;50.158;8.658;2023-03-31T03:58:39;9.70;99.90
35111;DHT22;21290;50.158;8.658;2023-03-31T04:01:06;9.70;99.90
35111;DHT22;21290;50.158;8.658;2023-03-31T04:03:33;9.70;99.90
35111;DHT22;21290;50.158;8.658;2023-03-31T04:05:59;9.70;99.90
35111;DHT22;21290;50.158;8.658;2023-03-31T04:08:26;9.60;99.90
35111;DHT22;21290;50.158;8.658;2023-03-31T04:10:52;9.60;99.90
35111;DHT22;21290;50.158;8.658;2023-03-31T04:13:19;9.60;99.90
35111;DHT22;21290;50.158;8.658;2023-03-31T04:15:46;9.60;99.90
35111;DHT22;21290;50.158;8.658;2023-03-31T04:18:13;9.60;99.90
35111;DHT22;21290;50.158;8.658;2023-03-31T04:20:49;9.60;99.90
35111;DHT22;21290;50.158;8.658;2023-03-31T04:23:21;9.70;99.90
35111;DHT22;21290;50.158;8.658;2023-03-31T04:25:51;9.60;99.90
35111;DHT22;21290;50.158;8.658;2023-03-31T04:28:18;9.60;99.90
35111;DHT22;21290;50.158;8.658;2023-03-31T04:30:45;9.60;99.90
35111;DHT22;21290;50.158;8.658;2023-03-31T04:33:12;9.60;99.90
35111;DHT22;21290;50.158;8.658;2023-03-31T04:35:40;9.60;99.90
35111;DHT22;21290;50.158;8.658;2023-03-31T04:38:19;9.70;99.90
35111;DHT22;21290;50.158;8.658;2023-03-31T04:40:48;9.70;99.90
35111;DHT22;21290;50.158;8.658;2023-03-31T04:43:16;9.70;99.90
35111;DHT22;21290;50.158;8.658;2023-03-31T04:45:42;9.70;99.90
35111;DHT22;21290;50.158;8.658;2023-03-31T04:48:10;9.70;99.90
35111;DHT22;21290;50.158;8.658;2023-03-31T04:50:37;9.70;99.90
35111;DHT22;21290;50.158;8.658;2023-03-31T04:53:04;9.60;99.90
35111;DHT22;21290;50.158;8.658;2023-03-31T04:55:32;9.70;99.90
35111;DHT22;21290;50.158;8.658;2023-03-31T04:57:58;9.70;99.90
35111;DHT22;21290;50.158;8.658;2023-03-31T05:00:25;9.70;99.90
35111;DHT22;21290;50.158;8.658;2023-03-31T05:02:52;9.70;99.90
35111;DHT22;21290;50.158;8.658;2023-03-31T05:05:18;9.60;99.90
35111;DHT22;21290;50.158;8.658;2023-03-31T05:07:45;9.70;99.90
35111;DHT22;21290;50.158;8.658;2023-03-31T05:10:12;9.70;99.90
35111;DHT22;21290;50.158;8.658;2023-03-31T05:12:39;9.70;99.90
35111;DHT22;21290;50.158;8.658;2023-03-31T05:15:06;9.70;99.90
35111;DHT22;21290;50.158;8.658;2023-03-31T05:17:34;9.70;99.90
35111;DHT22;21290;50.158;8.658;2023-03-31T05:20:01;9.70;99.90
35111;DHT22;21290;50.158;8.658;2023-03-31T05:22:33;9.80;99.90
35111;DHT22;21290;50.158;8.658;2023-03-31T05:25:01;9.80;99.90
35111;DHT22;21290;50.158;8.658;2023-03-31T05:27:27;9.80;99.90
35111;DHT22;21290;50.158;8.658;2023-03-31T05:29:54;9.80;99.90
35111;DHT22;21290;50.158;8.658;2023-03-31T05:32:21;9.80;99.90
35111;DHT22;21290;50.158;8.658;2023-03-31T05:34:48;9.70;99.90
35111;DHT22;21290;50.158;8.658;2023-03-31T05:37:19;9.70;99.90
35111;DHT22;21290;50.158;8.658;2023-03-31T05:39:46;9.70;99.90
35111;DHT22;21290;50.158;8.658;2023-03-31T05:42:12;9.70;99.90
35111;DHT22;21290;50.158;8.658;2023-03-31T05:44:39;9.60;99.90
35111;DHT22;21290;50.158;8.658;2023-03-31T05:47:05;9.60;99.90
35111;DHT22;21290;50.158;8.658;2023-03-31T05:49:32;9.60;99.90
35111;DHT22;21290;50.158;8.658;2023-03-31T05:51:59;9.60;99.90
35111;DHT22;21290;50.158;8.658;2023-03-31T05:54:26;9.60;99.90
35111;DHT22;21290;50.158;8.658;2023-03-31T05:56:53;9.60;99.90
35111;DHT22;21290;50.158;8.658;2023-03-31T05:59:19;9.60;99.90
35111;DHT22;21290;50.158;8.658;2023-03-31T06:01:46;9.60;99.90
35111;DHT22;21290;50.158;8.658;2023-03-31T06:04:13;9.60;99.90
35111;DHT22;21290;50.158;8.658;2023-03-31T06:06:40;9.60;99.90
35111;DHT22;21290;50.158;8.658;2023-03-31T06:09:08;9.60;99.90
35111;DHT22;21290;50.158;8.658;2023-03-31T06:11:37;9.60;99.90
35111;DHT22;21290;50.158;8.658;2023-03-31T06:14:04;9.50;99.90
35111;DHT22;21290;50.158;8.658;2023-03-31T06:16:31;9.50;99.90
35111;DHT22;21290;50.158;8.658;2023-03-31T06:18:57;9.50;99.90
35111;DHT22;21290;50.158;8.658;2023-03-31T06:21:24;9.50;99.90
35111;DHT22;21290;50.158;8.658;2023-03-31T06:23:51;9.50;99.90
35111;DHT22;21290;50.158;8.658;2023-03-31T06:26:21;9.60;99.90
35111;DHT22;21290;50.158;8.658;2023-03-31T06:28:48;9.60;99.90
35111;DHT22;21290;50.158;8.658;2023-03-31T06:31:17;9.60;99.90
35111;DHT22;21290;50.158;8.658;2023-03-31T06:33:44;9.60;99.90
35111;DHT22;21290;50.158;8.658;2023-03-31T06:36:13;9.60;99.90
35111;DHT22;21290;50.158;8.658;2023-03-31T06:38:40;9.60;99.90
35111;DHT22;21290;50.158;8.658;2023-03-31T06:41:08;9.60;99.90
35111;DHT22;21290;50.158;8.658;2023-03-31T06:43:36;9.60;99.90
35111;DHT22;21290;50.158;8.658;2023-03-31T06:46:03;9.60;99.90
35111;DHT22;21290;50.158;8.658;2023-03-31T06:48:30;9.60;99.90
35111;DHT22;21290;50.158;8.658;2023-03-31T06:51:02;9.60;99.90
35111;DHT22;21290;50.158;8.658;2023-03-31T06:53:29;9.60;99.90
35111;DHT22;21290;50.158;8.658;2023-03-31T06:55:55;9.60;99.90
35111;DHT22;21290;50.158;8.658;2023-03-31T06:58:22;9.70;99.90
35111;DHT22;21290;50.158;8.658;2023-03-31T07:00:49;9.70;99.90
35111;DHT22;21290;50.158;8.658;2023-03-31T07:03:16;9.70;99.90
35111;DHT22;21290;50.158;8.658;2023-03-31T07:05:52;9.70;99.90
35111;DHT22;21290;50.158;8.658;2023-03-31T07:08:19;9.70;99.90
35111;DHT22;21290;50.158;8.658;2023-03-31T07:10:58;9.80;99.90
35111;DHT22;21290;50.158;8.658;2023-03-31T07:13:26;9.80;99.90
35111;DHT22;21290;50.158;8.658;2023-03-31T07:15:53;9.80;99.90
35111;DHT22;21290;50.158;8.658;2023-03-31T07:18:21;9.80;99.90
35111;DHT22;21290;50.158;8.658;2023-03-31T07:20:51;9.80;99.90
35111;DHT22;21290;50.158;8.658;2023-03-31T07:23:19;9.80;99.90
35111;DHT22;21290;50.158;8.658;2023-03-31T07:25:46;9.90;99.90
35111;DHT22;21290;50.158;8.658;2023-03-31T07:28:15;9.90;99.90
35111;DHT22;21290;50.158;8.658;2023-03-31T07:30:42;9.90;99.90
35111;DHT22;21290;50.158;8.658;2023-03-31T07:33:09;9.90;99.90
35111;DHT22;21290;50.158;8.658;2023-03-31T07:35:39;9.90;99.90
35111;DHT22;21290;50.158;8.658;2023-03-31T07:38:09;9.90;99.90
35111;DHT22;21290;50.158;8.658;2023-03-31T07:40:36;9.90;99.90
35111;DHT22;21290;50.158;8.658;2023-03-31T07:43:03;10.00;99.90
35111;DHT22;21290;50.158;8.658;2023-03-31T07:45:31;9.90;99.90
35111;DHT22;21290;50.158;8.658;2023-03-31T07:47:57;10.00;99.90
35111;DHT22;21290;50.158;8.658;2023-03-31T07:50:24;10.00;99.90
35111;DHT22;21290;50.158;8.658;2023-03-31T07:52:52;10.00;99.90
35111;DHT22;21290;50.158;8.658;2023-03-31T07:55:19;10.00;99.90
35111;DHT22;21290;50.158;8.658;2023-03-31T07:57:46;10.00;99.90
35111;DHT22;21290;50.158;8.658;2023-03-31T08:00:14;10.10;99.90
35111;DHT22;21290;50.158;8.658;2023-03-31T08:02:41;10.10;99.90
35111;DHT22;21290;50.158;8.658;2023-03-31T08:05:10;10.20;99.90
35111;DHT22;21290;50.158;8.658;2023-03-31T08:07:40;10.30;99.90
35111;DHT22;21290;50.158;8.658;2023-03-31T08:10:07;10.50;99.90
35111;DHT22;21290;50.158;8.658;2023-03-31T08:12:34;10.80;99.90
35111;DHT22;21290;50.158;8.658;2023-03-31T08:15:02;11.10;99.90
35111;DHT22;21290;50.158;8.658;2023-03-31T08:17:29;11.20;99.90
35111;DHT22;21290;50.158;8.658;2023-03-31T08:19:56;11.10;99.90
35111;DHT22;21290;50.158;8.658;2023-03-31T08:22:27;11.20;99.90
35111;DHT22;21290;50.158;8.658;2023-03-31T08:24:53;11.30;99.90
35111;DHT22;21290;50.158;8.658;2023-03-31T08:27:20;11.80;99.90
35111;DHT22;21290;50.158;8.658;2023-03-31T08:29:46;12.70;99.90
35111;DHT22;21290;50.158;8.658;2023-03-31T08:32:13;13.20;99.90
35111;DHT22;21290;50.158;8.658;2023-03-31T08:34:40;13.80;99.90
35111;DHT22;21290;50.158;8.658;2023-03-31T08:37:08;14.70;99.90
35111;DHT22;21290;50.158;8.658;2023-03-31T08:39:35;15.10;99.90
35111;DHT22;21290;50.158;8.658;2023-03-31T08:42:10;15.70;99.90
35111;DHT22;21290;50.158;8.658;2023-03-31T08:44:57;16.10;99.90
35111;DHT22;21290;50.158;8.658;2023-03-31T08:47:26;15.60;99.90
35111;DHT22;21290;50.158;8.658;2023-03-31T08:50:16;15.00;99.90
35111;DHT22;21290;50.158;8.658;2023-03-31T08:53:05;14.30;99.90
35111;DHT22;21290;50.158;8.658;2023-03-31T09:00:50;12.90;99.90
35111;DHT22;21290;50.158;8.658;2023-03-31T09:03:27;12.60;99.90
35111;DHT22;21290;50.158;8.658;2023-03-31T09:06:01;12.40;99.90
35111;DHT22;21290;50.158;8.658;2023-03-31T09:08:38;12.30;99.90
35111;DHT22;21290;50.158;8.658;2023-03-31T09:11:11;12.10;99.90
35111;DHT22;21290;50.158;8.658;2023-03-31T09:16:33;12.10;99.90
35111;DHT22;21290;50.158;8.658;2023-03-31T09:19:01;12.40;99.90
35111;DHT22;21290;50.158;8.658;2023-03-31T09:21:40;12.90;99.90
35111;DHT22;21290;50.158;8.658;2023-03-31T09:24:17;13.40;99.90
35111;DHT22;21290;50.158;8.658;2023-03-31T09:26:57;13.80;99.90
35111;DHT22;21290;50.158;8.658;2023-03-31T09:32:32;15.60;99.90
35111;DHT22;21290;50.158;8.658;2023-03-31T09:35:01;17.30;99.90
35111;DHT22;21290;50.158;8.658;2023-03-31T09:37:38;18.70;99.90
35111;DHT22;21290;50.158;8.658;2023-03-31T09:40:05;19.20;99.90
35111;DHT22;21290;50.158;8.658;2023-03-31T09:42:37;18.70;99.90
35111;DHT22;21290;50.158;8.658;2023-03-31T09:45:04;17.70;99.90
35111;DHT22;21290;50.158;8.658;2023-03-31T09:47:35;16.50;99.90
35111;DHT22;21290;50.158;8.658;2023-03-31T09:50:06;15.70;99.90
35111;DHT22;21290;50.158;8.658;2023-03-31T09:52:37;14.90;99.90
35111;DHT22;21290;50.158;8.658;2023-03-31T09:55:19;14.30;99.90
35111;DHT22;21290;50.158;8.658;2023-03-31T09:58:12;14.10;99.90
35111;DHT22;21290;50.158;8.658;2023-03-31T10:00:41;14.40;99.90
35111;DHT22;21290;50.158;8.658;2023-03-31T10:03:12;15.20;99.90
35111;DHT22;21290;50.158;8.658;2023-03-31T10:05:50;16.30;99.90
35111;DHT22;21290;50.158;8.658;2023-03-31T10:08:31;16.60;99.90
35111;DHT22;21290;50.158;8.658;2023-03-31T10:19:20;15.60;99.90
35111;DHT22;21290;50.158;8.658;2023-03-31T10:22:17;15.10;99.90
35111;DHT22;21290;50.158;8.658;2023-03-31T10:24:43;14.80;99.90
35111;DHT22;21290;50.158;8.658;2023-03-31T10:27:22;14.50;99.90
35111;DHT22;21290;50.158;8.658;2023-03-31T10:29:55;14.20;99.90
35111;DHT22;21290;50.158;8.658;2023-03-31T10:32:25;13.90;99.90
35111;DHT22;21290;50.158;8.658;2023-03-31T10:34:55;13.40;99.90
35111;DHT22;21290;50.158;8.658;2023-03-31T10:37:26;12.70;99.90
35111;DHT22;21290;50.158;8.658;2023-03-31T10:40:00;11.80;99.90
35111;DHT22;21290;50.158;8.658;2023-03-31T10:42:29;11.10;99.90
35111;DHT22;21290;50.158;8.658;2023-03-31T10:45:23;10.60;99.90
35111;DHT22;21290;50.158;8.658;2023-03-31T10:48:03;10.20;99.90
35111;DHT22;21290;50.158;8.658;2023-03-31T10:50:35;9.90;99.90
35111;DHT22;21290;50.158;8.658;2023-03-31T10:53:13;9.70;99.90
35111;DHT22;21290;50.158;8.658;2023-03-31T10:56:05;9.60;99.90
35111;DHT22;21290;50.158;8.658;2023-03-31T11:01:38;9.70;99.90
35111;DHT22;21290;50.158;8.658;2023-03-31T11:07:35;9.70;99.90
35111;DHT22;21290;50.158;8.658;2023-03-31T11:15:59;10.10;99.90
35111;DHT22;21290;50.158;8.658;2023-03-31T11:18:46;10.40;99.90
35111;DHT22;21290;50.158;8.658;2023-03-31T11:21:51;11.00;99.90
35111;DHT22;21290;50.158;8.658;2023-03-31T11:24:47;11.60;99.90
35111;DHT22;21290;50.158;8.658;2023-03-31T11:33:43;14.30;99.90
35111;DHT22;21290;50.158;8.658;2023-03-31T11:38:56;15.30;99.90
35111;DHT22;21290;50.158;8.658;2023-03-31T11:41:29;16.20;99.90
35111;DHT22;21290;50.158;8.658;2023-03-31T11:44:13;16.70;99.90
35111;DHT22;21290;50.158;8.658;2023-03-31T11:47:01;16.60;99.90
35111;DHT22;21290;50.158;8.658;2023-03-31T11:49:53;16.00;99.90
35111;DHT22;21290;50.158;8.658;2023-03-31T11:52:28;15.40;99.90
35111;DHT22;21290;50.158;8.658;2023-03-31T11:55:04;15.00;99.90
35111;DHT22;21290;50.158;8.658;2023-03-31T11:57:39;14.90;99.90
35111;DHT22;21290;50.158;8.658;2023-03-31T12:00:18;14.80;99.90
35111;DHT22;21290;50.158;8.658;2023-03-31T12:05:17;14.30;99.90
35111;DHT22;21290;50.158;8.658;2023-03-31T12:07:49;14.10;99.90
35111;DHT22;21290;50.158;8.658;2023-03-31T12:10:35;14.10;99.90
35111;DHT22;21290;50.158;8.658;2023-03-31T12:13:22;14.20;99.90
35111;DHT22;21290;50.158;8.658;2023-03-31T12:15:59;14.50;99.90
35111;DHT22;21290;50.158;8.658;2023-03-31T12:21:28;14.70;99.90
35111;DHT22;21290;50.158;8.658;2023-03-31T12:23:56;14.40;99.90
35111;DHT22;21290;50.158;8.658;2023-03-31T12:27:25;14.10;99.90
35111;DHT22;21290;50.158;8.658;2023-03-31T12:29:37;13.70;99.90
35111;DHT22;21290;50.158;8.658;2023-03-31T12:32:23;13.40;99.90
35111;DHT22;21290;50.158;8.658;2023-03-31T12:42:48;12.10;99.90
35111;DHT22;21290;50.158;8.658;2023-03-31T12:45:30;11.80;99.90
35111;DHT22;21290;50.158;8.658;2023-03-31T12:48:27;11.70;99.90
35111;DHT22;21290;50.158;8.658;2023-03-31T12:51:12;11.60;99.90
35111;DHT22;21290;50.158;8.658;2023-03-31T12:56:07;11.60;99.90
35111;DHT22;21290;50.158;8.658;2023-03-31T12:58:39;11.60;99.90
35111;DHT22;21290;50.158;8.658;2023-03-31T13:01:10;11.60;99.90
35111;DHT22;21290;50.158;8.658;2023-03-31T13:03:48;11.70;99.90
35111;DHT22;21290;50.158;8.658;2023-03-31T13:08:58;12.00;99.90
35111;DHT22;21290;50.158;8.658;2023-03-31T13:14:05;12.50;99.90
35111;DHT22;21290;50.158;8.658;2023-03-31T13:16:33;12.80;99.90
35111;DHT22;21290;50.158;8.658;2023-03-31T13:19:01;12.90;99.90
35111;DHT22;21290;50.158;8.658;2023-03-31T13:21:28;13.10;99.90
35111;DHT22;21290;50.158;8.658;2023-03-31T13:23:59;13.30;99.90
35111;DHT22;21290;50.158;8.658;2023-03-31T13:34:33;14.00;99.90
35111;DHT22;21290;50.158;8.658;2023-03-31T13:40:43;14.30;99.90
35111;DHT22;21290;50.158;8.658;2023-03-31T13:43:55;14.30;99.90
35111;DHT22;21290;50.158;8.658;2023-03-31T13:46:47;14.40;99.90
35111;DHT22;21290;50.158;8.658;2023-03-31T13:49:46;14.50;99.90
35111;DHT22;21290;50.158;8.658;2023-03-31T14:01:29;14.40;99.90
35111;DHT22;21290;50.158;8.658;2023-03-31T14:06:46;14.60;99.90
35111;DHT22;21290;50.158;8.658;2023-03-31T14:09:33;14.40;99.90
35111;DHT22;21290;50.158;8.658;2023-03-31T14:12:01;14.50;99.90
35111;DHT22;21290;50.158;8.658;2023-03-31T14:14:43;14.60;99.90
35111;DHT22;21290;50.158;8.658;2023-03-31T14:17:11;14.70;99.90
35111;DHT22;21290;50.158;8.658;2023-03-31T14:25:17;14.40;99.90
35111;DHT22;21290;50.158;8.658;2023-03-31T14:28:04;14.40;99.90
35111;DHT22;21290;50.158;8.658;2023-03-31T14:30:58;14.30;99.90
35111;DHT22;21290;50.158;8.658;2023-03-31T14:38:51;14.50;99.90
35111;DHT22;21290;50.158;8.658;2023-03-31T14:41:19;14.50;99.90
35111;DHT22;21290;50.158;8.658;2023-03-31T14:43:48;14.60;99.90
35111;DHT22;21290;50.158;8.658;2023-03-31T14:46:20;14.50;99.90
35111;DHT22;21290;50.158;8.658;2023-03-31T14:48:49;14.50;99.90
35111;DHT22;21290;50.158;8.658;2023-03-31T14:51:29;14.50;99.90
35111;DHT22;21290;50.158;8.658;2023-03-31T14:54:00;14.60;99.90
35111;DHT22;21290;50.158;8.658;2023-03-31T14:56:37;14.60;99.90
35111;DHT22;21290;50.158;8.658;2023-03-31T14:59:07;14.40;99.90
35111;DHT22;21290;50.158;8.658;2023-03-31T15:01:35;14.50;99.90
35111;DHT22;21290;50.158;8.658;2023-03-31T15:04:07;14.40;99.90
35111;DHT22;21290;50.158;8.658;2023-03-31T15:06:34;14.40;99.90
35111;DHT22;21290;50.158;8.658;2023-03-31T15:09:02;14.30;99.90
35111;DHT22;21290;50.158;8.658;2023-03-31T15:11:29;14.30;99.90
35111;DHT22;21290;50.158;8.658;2023-03-31T15:13:58;14.20;99.90
35111;DHT22;21290;50.158;8.658;2023-03-31T15:16:40;14.10;99.90
35111;DHT22;21290;50.158;8.658;2023-03-31T15:19:20;13.90;99.90
35111;DHT22;21290;50.158;8.658;2023-03-31T15:22:07;13.40;99.90
35111;DHT22;21290;50.158;8.658;2023-03-31T15:24:35;12.80;99.90
35111;DHT22;21290;50.158;8.658;2023-03-31T15:27:31;12.30;99.90
35111;DHT22;21290;50.158;8.658;2023-03-31T15:30:07;12.00;99.90
35111;DHT22;21290;50.158;8.658;2023-03-31T15:32:36;11.80;99.90
35111;DHT22;21290;50.158;8.658;2023-03-31T15:35:04;11.70;99.90
35111;DHT22;21290;50.158;8.658;2023-03-31T15:37:48;11.70;99.90
35111;DHT22;21290;50.158;8.658;2023-03-31T15:45:55;11.70;99.90
35111;DHT22;21290;50.158;8.658;2023-03-31T15:48:28;11.90;99.90
35111;DHT22;21290;50.158;8.658;2023-03-31T15:53:44;12.10;99.90
35111;DHT22;21290;50.158;8.658;2023-03-31T15:56:30;12.20;99.90
35111;DHT22;21290;50.158;8.658;2023-03-31T15:59:03;12.30;99.90
35111;DHT22;21290;50.158;8.658;2023-03-31T16:01:36;12.30;99.90
35111;DHT22;21290;50.158;8.658;2023-03-31T16:04:09;12.40;99.90
35111;DHT22;21290;50.158;8.658;2023-03-31T16:09:16;12.40;99.90
35111;DHT22;21290;50.158;8.658;2023-03-31T16:11:47;12.40;99.90
35111;DHT22;21290;50.158;8.658;2023-03-31T16:14:21;12.30;99.90
35111;DHT22;21290;50.158;8.658;2023-03-31T16:16:57;12.30;99.90
35111;DHT22;21290;50.158;8.658;2023-03-31T16:19:31;12.30;99.90
35111;DHT22;21290;50.158;8.658;2023-03-31T16:22:04;12.30;99.90
35111;DHT22;21290;50.158;8.658;2023-03-31T16:24:33;12.20;99.90
35111;DHT22;21290;50.158;8.658;2023-03-31T16:27:03;12.20;99.90
35111;DHT22;21290;50.158;8.658;2023-03-31T16:29:36;12.10;99.90
35111;DHT22;21290;50.158;8.658;2023-03-31T16:32:21;12.00;99.90
35111;DHT22;21290;50.158;8.658;2023-03-31T16:34:56;11.80;99.90
35111;DHT22;21290;50.158;8.658;2023-03-31T16:37:24;11.60;99.90
35111;DHT22;21290;50.158;8.658;2023-03-31T16:39:50;11.40;99.90
35111;DHT22;21290;50.158;8.658;2023-03-31T16:42:18;11.30;99.90
35111;DHT22;21290;50.158;8.658;2023-03-31T16:44:45;11.10;99.90
35111;DHT22;21290;50.158;8.658;2023-03-31T16:47:25;11.00;99.90
35111;DHT22;21290;50.158;8.658;2023-03-31T16:50:00;10.90;99.90
35111;DHT22;21290;50.158;8.658;2023-03-31T16:52:32;10.80;99.90
35111;DHT22;21290;50.158;8.658;2023-03-31T16:54:59;10.80;99.90
35111;DHT22;21290;50.158;8.658;2023-03-31T16:57:25;10.70;99.90
35111;DHT22;21290;50.158;8.658;2023-03-31T16:59:52;10.70;99.90
35111;DHT22;21290;50.158;8.658;2023-03-31T17:02:18;10.60;99.90
35111;DHT22;21290;50.158;8.658;2023-03-31T17:04:46;10.60;99.90
35111;DHT22;21290;50.158;8.658;2023-03-31T17:07:14;10.60;99.90
35111;DHT22;21290;50.158;8.658;2023-03-31T17:09:41;10.50;99.90
35111;DHT22;21290;50.158;8.658;2023-03-31T17:12:08;10.50;99.90
35111;DHT22;21290;50.158;8.658;2023-03-31T17:14:35;10.40;99.90
35111;DHT22;21290;50.158;8.658;2023-03-31T17:17:01;10.40;99.90
35111;DHT22;21290;50.158;8.658;2023-03-31T17:19:28;10.40;99.90
35111;DHT22;21290;50.158;8.658;2023-03-31T17:21:55;10.40;99.90
35111;DHT22;21290;50.158;8.658;2023-03-31T17:24:27;10.30;99.90
35111;DHT22;21290;50.158;8.658;2023-03-31T17:26:53;10.30;99.90
35111;DHT22;21290;50.158;8.658;2023-03-31T17:29:20;10.30;99.90
35111;DHT22;21290;50.158;8.658;2023-03-31T17:31:47;10.20;99.90
35111;DHT22;21290;50.158;8.658;2023-03-31T17:34:13;10.30;99.90
35111;DHT22;21290;50.158;8.658;2023-03-31T17:36:40;10.30;99.90
35111;DHT22;21290;50.158;8.658;2023-03-31T17:39:09;10.30;99.90
35111;DHT22;21290;50.158;8.658;2023-03-31T17:41:36;10.30;99.90
35111;DHT22;21290;50.158;8.658;2023-03-31T17:44:03;10.30;99.90
35111;DHT22;21290;50.158;8.658;2023-03-31T17:46:30;10.30;99.90
35111;DHT22;21290;50.158;8.658;2023-03-31T17:48:57;10.30;99.90
35111;DHT22;21290;50.158;8.658;2023-03-31T17:51:25;10.30;99.90
35111;DHT22;21290;50.158;8.658;2023-03-31T17:53:53;10.30;99.90
35111;DHT22;21290;50.158;8.658;2023-03-31T17:56:19;10.40;99.90
35111;DHT22;21290;50.158;8.658;2023-03-31T17:58:46;10.40;99.90
35111;DHT22;21290;50.158;8.658;2023-03-31T18:01:13;10.40;99.90
35111;DHT22;21290;50.158;8.658;2023-03-31T18:03:40;10.30;99.90
35111;DHT22;21290;50.158;8.658;2023-03-31T18:06:10;10.30;99.90
35111;DHT22;21290;50.158;8.658;2023-03-31T18:08:38;10.30;99.90
35111;DHT22;21290;50.158;8.658;2023-03-31T18:11:06;10.20;99.90
35111;DHT22;21290;50.158;8.658;2023-03-31T18:13:34;10.20;99.90
35111;DHT22;21290;50.158;8.658;2023-03-31T18:16:05;10.20;99.90
35111;DHT22;21290;50.158;8.658;2023-03-31T18:18:36;10.20;99.90
35111;DHT22;21290;50.158;8.658;2023-03-31T18:21:04;10.20;99.90
35111;DHT22;21290;50.158;8.658;2023-03-31T18:23:32;10.20;99.90